Time;durP1;ratioP1;P1;durP2;ratioP2;P2;SDS_P1;SDS_P2;PMS_P1;PMS_P2;Temp;Humidity;BMP_temperature;BMP_pressure;BME280_temperature;BME280_humidity;BME280_pressure;Samples;Min_cycle;Max_cycle;Signal;HPM_P1;HPM_P2
2022/06/28 00:09:41;;;;;;;2.37;1.03;;;;;;;;;;21089292;28;20503;-57
2022/06/28 00:19:43;;;;;;;4.60;1.10;;;;;;;;;;21088022;28;20101;-57
2022/06/28 00:29:45;;;;;;;1.87;0.80;;;;;;;;;;21088057;28;20492;-60
2022/06/28 00:39:47;;;;;;;3.10;0.73;;;;;;;;;;21088286;28;20054;-60
2022/06/28 00:49:50;;;;;;;3.10;0.90;;;;;;;;;;21086086;28;20059;-58
2022/06/28 00:59:52;;;;;;;3.22;0.90;;;;;;;;;;21084906;28;20052;-57
2022/06/28 01:09:54;;;;;;;4.65;1.13;;;;;;;;;;21084759;28;20458;-72
2022/06/28 01:19:57;;;;;;;1.45;0.90;;;;;;;;;;21085062;28;20097;-71
2022/06/28 01:30:00;;;;;;;1.85;1.05;;;;;;;;;;21082665;28;20096;-59
2022/06/28 01:40:07;;;;;;;4.15;0.95;;;;;;;;;;21082451;28;20103;-61
2022/06/28 01:50:12;;;;;;;2.90;1.02;;;;;;;;;;21081786;28;20052;-58
2022/06/28 02:00:15;;;;;;;3.63;1.30;;;;;;;;;;21080516;28;20048;-59
2022/06/28 02:10:19;;;;;;;2.38;1.10;;;;;;;;;;21080705;28;20056;-67
2022/06/28 02:20:26;;;;;;;1.42;0.80;;;;;;;;;;21079620;28;20042;-59
2022/06/28 02:30:30;;;;;;;5.30;0.90;;;;;;;;;;21078045;28;20153;-71
2022/06/28 02:40:33;;;;;;;3.75;1.00;;;;;;;;;;21079395;28;20053;-62
2022/06/28 02:50:35;;;;;;;2.20;0.98;;;;;;;;;;21077974;28;20484;-60
2022/06/28 03:00:38;;;;;;;1.52;0.85;;;;;;;;;;21080352;28;20540;-57
2022/06/28 03:10:39;;;;;;;2.38;0.80;;;;;;;;;;21082389;28;20473;-73
2022/06/28 03:20:42;;;;;;;2.90;1.00;;;;;;;;;;21079966;28;20044;-60
2022/06/28 03:30:44;;;;;;;2.25;0.90;;;;;;;;;;21077134;28;20051;-57
2022/06/28 03:40:46;;;;;;;1.95;0.93;;;;;;;;;;21087236;28;20520;-60
2022/06/28 03:50:48;;;;;;;2.53;1.45;;;;;;;;;;21091465;28;20062;-58
2022/06/28 04:00:50;;;;;;;2.97;1.38;;;;;;;;;;21089674;28;20059;-58
2022/06/28 04:21:14;;;;;;;3.38;1.30;;;;;;;;;;21088935;28;20067;-69
2022/06/28 04:31:17;;;;;;;3.72;1.10;;;;;;;;;;21088419;28;20060;-66
2022/06/28 04:41:23;;;;;;;3.63;1.10;;;;;;;;;;21086951;28;20048;-65
2022/06/28 04:51:30;;;;;;;3.20;1.02;;;;;;;;;;21086252;28;20083;-66
2022/06/28 05:01:31;;;;;;;4.40;1.58;;;;;;;;;;21085023;28;20048;-59
2022/06/28 05:11:33;;;;;;;4.32;1.80;;;;;;;;;;21084497;28;20134;-59
2022/06/28 05:21:35;;;;;;;3.90;1.50;;;;;;;;;;21084186;28;20135;-59
2022/06/28 05:31:37;;;;;;;4.55;1.50;;;;;;;;;;21083378;28;20067;-60
2022/06/28 05:41:41;;;;;;;7.00;1.73;;;;;;;;;;21082994;28;20051;-61
2022/06/28 05:51:44;;;;;;;8.35;1.95;;;;;;;;;;21082326;28;20044;-61
2022/06/28 06:01:46;;;;;;;7.93;2.70;;;;;;;;;;21080956;28;20052;-60
2022/06/28 06:11:47;;;;;;;4.72;1.42;;;;;;;;;;21081363;28;20056;-58
2022/06/28 06:21:49;;;;;;;6.57;1.38;;;;;;;;;;21080036;28;20408;-59
2022/06/28 06:31:51;;;;;;;6.38;1.63;;;;;;;;;;21079718;28;20126;-63
2022/06/28 06:41:53;;;;;;;10.32;2.20;;;;;;;;;;21078718;28;20433;-61
2022/06/28 06:51:55;;;;;;;3.17;1.27;;;;;;;;;;21079256;28;20052;-60
2022/06/28 07:01:57;;;;;;;6.45;1.70;;;;;;;;;;21076353;28;20123;-58
2022/06/28 07:11:58;;;;;;;4.97;1.88;;;;;;;;;;21085239;28;20506;-58
2022/06/28 07:22:00;;;;;;;7.38;2.00;;;;;;;;;;21092137;28;20089;-60
2022/06/28 07:32:02;;;;;;;5.72;1.73;;;;;;;;;;21094130;28;20063;-58
2022/06/28 07:42:04;;;;;;;5.00;1.73;;;;;;;;;;21092608;28;20068;-66
2022/06/28 08:02:28;;;;;;;5.45;1.92;;;;;;;;;;21090887;28;20104;-61
2022/06/28 08:12:29;;;;;;;6.82;2.13;;;;;;;;;;21087431;28;20480;-60
2022/06/28 08:22:31;;;;;;;5.17;2.97;;;;;;;;;;21087714;28;20071;-60
2022/06/28 08:32:33;;;;;;;8.47;2.07;;;;;;;;;;21086839;28;20063;-64
2022/06/28 08:42:36;;;;;;;6.55;2.65;;;;;;;;;;21083674;28;20082;-57
2022/06/28 08:52:38;;;;;;;10.10;2.20;;;;;;;;;;21085431;28;20043;-59
2022/06/28 09:02:40;;;;;;;13.50;2.70;;;;;;;;;;21085541;28;20055;-59
2022/06/28 09:12:42;;;;;;;7.15;2.35;;;;;;;;;;21083995;28;20416;-56
2022/06/28 09:22:45;;;;;;;18.08;6.78;;;;;;;;;;21083472;28;20086;-57
2022/06/28 09:32:47;;;;;;;6.25;2.35;;;;;;;;;;21081382;28;20083;-57
2022/06/28 09:43:16;;;;;;;15.07;2.88;;;;;;;;;;21081672;28;20101;-58
2022/06/28 09:53:20;;;;;;;7.00;2.17;;;;;;;;;;21071485;28;20080;-58
2022/06/28 10:03:22;;;;;;;9.50;2.80;;;;;;;;;;21078740;28;20535;-54
2022/06/28 10:23:48;;;;;;;4.97;2.45;;;;;;;;;;21079622;28;20040;-63
2022/06/28 10:34:00;;;;;;;8.40;2.90;;;;;;;;;;21079349;28;20083;-58
2022/06/28 10:44:06;;;;;;;5.57;2.10;;;;;;;;;;21027635;28;20056;-59
2022/06/28 10:54:09;;;;;;;4.45;2.33;;;;;;;;;;20994790;28;20500;-62
2022/06/28 11:04:21;;;;;;;3.67;1.75;;;;;;;;;;20991966;28;20139;-70
2022/06/28 11:14:30;;;;;;;7.18;1.98;;;;;;;;;;21045116;28;20052;-55
2022/06/28 11:24:32;;;;;;;5.82;2.00;;;;;;;;;;21075449;28;20048;-55
2022/06/28 11:34:34;;;;;;;4.53;1.70;;;;;;;;;;21078002;28;20051;-57
2022/06/28 11:44:36;;;;;;;8.23;1.83;;;;;;;;;;21076245;28;20055;-61
2022/06/28 11:54:37;;;;;;;15.32;10.95;;;;;;;;;;21075221;28;20059;-62
2022/06/28 12:04:41;;;;;;;2.55;1.80;;;;;;;;;;21087027;28;20051;-67
2022/06/28 12:14:43;;;;;;;7.28;1.75;;;;;;;;;;21086926;28;20131;-66
2022/06/28 12:24:56;;;;;;;5.45;1.77;;;;;;;;;;21088921;28;20105;-57
2022/06/28 12:34:59;;;;;;;4.22;1.90;;;;;;;;;;21087797;28;20091;-59
2022/06/28 12:45:02;;;;;;;4.95;1.60;;;;;;;;;;21088434;28;20079;-60
2022/06/28 12:55:05;;;;;;;7.35;1.73;;;;;;;;;;21085784;28;20047;-55
2022/06/28 13:05:07;;;;;;;4.10;2.00;;;;;;;;;;21085896;28;20450;-57
2022/06/28 13:15:09;;;;;;;3.33;1.70;;;;;;;;;;21084268;28;20415;-57
2022/06/28 13:25:12;;;;;;;6.63;1.85;;;;;;;;;;21083621;28;20093;-61
2022/06/28 13:35:14;;;;;;;4.07;2.05;;;;;;;;;;21083190;28;20109;-58
2022/06/28 13:45:17;;;;;;;3.08;1.70;;;;;;;;;;21083086;28;20055;-58
2022/06/28 13:55:23;;;;;;;2.97;1.30;;;;;;;;;;21079770;28;20052;-59
2022/06/28 14:05:25;;;;;;;4.63;2.00;;;;;;;;;;21079538;28;20083;-56
2022/06/28 14:15:27;;;;;;;5.00;1.92;;;;;;;;;;21079735;28;20546;-61
2022/06/28 14:25:29;;;;;;;5.85;1.98;;;;;;;;;;21078051;28;20048;-59
2022/06/28 14:35:32;;;;;;;5.53;1.67;;;;;;;;;;21078795;28;20112;-60
2022/06/28 14:45:34;;;;;;;3.22;1.60;;;;;;;;;;21078947;28;20044;-62
2022/06/28 14:55:37;;;;;;;5.35;2.10;;;;;;;;;;21078079;28;20109;-62
2022/06/28 15:05:39;;;;;;;4.90;2.03;;;;;;;;;;21077560;28;20044;-60
2022/06/28 15:15:42;;;;;;;3.47;2.35;;;;;;;;;;21078206;28;20051;-60
2022/06/28 15:36:08;;;;;;;;;;;;;;;;;;21087734;28;20106;-58
2022/06/28 15:46:10;;;;;;;5.82;1.60;;;;;;;;;;21091935;28;19919;-56
2022/06/28 15:56:12;;;;;;;2.88;1.45;;;;;;;;;;21047502;28;20044;-64
2022/06/28 16:06:14;;;;;;;4.82;1.35;;;;;;;;;;21049896;28;20052;-73
2022/06/28 16:16:16;;;;;;;4.13;1.77;;;;;;;;;;21005999;28;20190;-54
2022/06/28 16:26:18;;;;;;;2.67;1.17;;;;;;;;;;21005537;28;20121;-67
2022/06/28 16:36:20;;;;;;;3.20;1.17;;;;;;;;;;21004494;28;20131;-60
2022/06/28 16:46:21;;;;;;;3.28;1.45;;;;;;;;;;21015170;28;20114;-54
2022/06/28 16:56:23;;;;;;;3.97;1.73;;;;;;;;;;21004112;28;20121;-63
2022/06/28 17:16:46;;;;;;;3.10;1.15;;;;;;;;;;21011149;28;20091;-66
2022/06/28 17:26:48;;;;;;;2.63;1.50;;;;;;;;;;21000443;28;20190;-54
2022/06/28 17:36:50;;;;;;;4.38;3.30;;;;;;;;;;21022510;28;20078;-59
2022/06/28 17:46:52;;;;;;;2.83;1.60;;;;;;;;;;21052771;28;20173;-56
2022/06/28 17:56:54;;;;;;;1.77;1.10;;;;;;;;;;20996444;28;20101;-57
2022/06/28 18:06:56;;;;;;;2.70;1.48;;;30.70;16.40;;;;;;20996462;28;20381;-57
2022/06/28 18:16:57;;;;;;;5.25;1.85;;;30.70;16.80;;;;;;20995683;28;20067;-58
2022/06/28 18:26:59;;;;;;;4.07;1.50;;;30.60;17.20;;;;;;20996222;28;20101;-58
2022/06/28 18:37:01;;;;;;;4.55;2.10;;;30.50;17.60;;;;;;20994671;28;20072;-57
2022/06/28 18:47:03;;;;;;;5.60;2.30;;;30.40;17.70;;;;;;20994175;28;20055;-57
2022/06/28 18:57:05;;;;;;;3.10;2.42;;;30.20;17.80;;;;;;20993982;28;20052;-57
2022/06/28 19:07:08;;;;;;;3.95;2.10;;;30.10;18.50;;;;;;20997545;28;20087;-58
2022/06/28 19:17:10;;;;;;;8.73;3.67;;;30.00;18.80;;;;;;21009861;28;20052;-60
2022/06/28 19:27:13;;;;;;;5.90;2.83;;;30.00;19.20;;;;;;21008463;28;20052;-57
2022/06/28 19:37:15;;;;;;;4.82;2.55;;;29.70;19.50;;;;;;21008577;28;20052;-57
2022/06/28 19:47:17;;;;;;;4.43;2.45;;;29.50;20.10;;;;;;21008090;28;20049;-57
2022/06/28 19:57:19;;;;;;;5.95;3.40;;;29.30;20.60;;;;;;21007088;28;20080;-58
2022/06/28 20:07:20;;;;;;;6.85;3.53;;;29.10;20.90;;;;;;21081278;28;20044;-57
2022/06/28 20:17:24;;;;;;;7.55;3.45;;;28.90;21.40;;;;;;21089031;28;20052;-60
2022/06/28 20:27:27;;;;;;;4.68;2.53;;;28.70;21.80;;;;;;21087422;28;20129;-57
2022/06/28 20:37:28;;;;;;;9.35;5.90;;;28.60;22.40;;;;;;21085836;28;20048;-59
2022/06/28 20:47:31;;;;;;;7.70;3.65;;;28.40;22.70;;;;;;21086579;28;20432;-58
2022/06/28 20:57:33;;;;;;;8.82;5.72;;;28.20;23.10;;;;;;21085458;28;20522;-58
2022/06/28 21:07:35;;;;;;;42.38;25.83;;;28.10;22.90;;;;;;21086281;28;20062;-58
2022/06/28 21:17:37;;;;;;;54.75;32.40;;;27.90;23.10;;;;;;21083127;28;20061;-58
2022/06/28 21:27:39;;;;;;;41.88;23.95;;;27.70;23.60;;;;;;21083926;28;20055;-59
2022/06/28 21:37:41;;;;;;;35.00;20.88;;;27.60;24.00;;;;;;21083076;28;20052;-60
2022/06/28 21:47:43;;;;;;;50.65;32.08;;;27.50;24.50;;;;;;21083533;28;20436;-58
2022/06/28 21:57:46;;;;;;;38.13;23.20;;;27.30;24.40;;;;;;21080028;28;20086;-58
2022/06/28 22:07:49;;;;;;;26.88;17.02;;;27.30;24.60;;;;;;21080816;28;20058;-59
2022/06/28 22:17:51;;;;;;;12.43;7.85;;;27.10;24.80;;;;;;21080884;28;20352;-60
2022/06/28 22:27:53;;;;;;;17.60;11.00;;;27.00;24.70;;;;;;21080177;28;20454;-57
2022/06/28 22:37:55;;;;;;;20.35;11.57;;;26.80;25.20;;;;;;21079305;28;20109;-59
2022/06/28 22:47:56;;;;;;;11.90;6.90;;;26.60;26.00;;;;;;21077224;28;20051;-62
2022/06/28 22:57:58;;;;;;;6.43;4.05;;;26.40;26.00;;;;;;21077833;28;20048;-59
2022/06/28 23:08:00;;;;;;;7.75;3.90;;;26.30;26.00;;;;;;21078131;28;20044;-62
2022/06/28 23:18:02;;;;;;;9.23;4.57;;;26.30;26.10;;;;;;21076720;28;20052;-63
2022/06/28 23:28:04;;;;;;;13.27;6.72;;;26.30;26.40;;;;;;21076660;28;20086;-57
2022/06/28 23:38:06;;;;;;;12.27;6.32;;;26.20;27.40;;;;;;21075852;28;20048;-61
2022/06/28 23:48:08;;;;;;;10.93;7.20;;;26.00;27.60;;;;;;21076783;28;20047;-58
2022/06/28 23:58:10;;;;;;;5.47;3.22;;;25.90;28.00;;;;;;21087351;28;20082;-57
